Time;durP1;ratioP1;P1;durP2;ratioP2;P2;SDS_P1;SDS_P2;PMS_P1;PMS_P2;Temp;Humidity;BMP_temperature;BMP_pressure;BME280_temperature;BME280_humidity;BME280_pressure;Samples;Min_cycle;Max_cycle;Signal;HPM_P1;HPM_P2
2022/08/12 00:44:27;;;;;;;2.83;1.60;;;;;;;20.59;41.70;100013.97;7620012;32;37733;-75
2022/08/12 00:48:45;;;;;;;1.60;1.30;;;;;;;20.63;41.63;100012.22;7630826;32;37215;-74
2022/08/12 00:53:01;;;;;;;1.40;1.20;;;;;;;20.72;41.32;100023.25;7631137;32;39043;-74
2022/08/12 00:57:22;;;;;;;1.77;1.35;;;;;;;20.75;40.79;100017.84;7629378;32;40640;-74
2022/08/12 01:01:42;;;;;;;1.83;1.48;;;;;;;20.76;40.80;100011.16;7631010;32;37057;-74
2022/08/12 01:15:30;;;;;;;1.95;1.45;;;;;;;20.47;42.03;100013.87;7630308;32;39896;-74
2022/08/12 01:19:47;;;;;;;1.67;1.30;;;;;;;20.47;42.15;100020.22;7630554;32;38064;-73
2022/08/12 01:24:30;;;;;;;2.10;1.58;;;;;;;20.47;42.18;100011.91;7630470;32;36787;-74
2022/08/12 01:28:49;;;;;;;2.37;1.55;;;;;;;20.47;42.39;100011.13;7629146;32;39106;-74
2022/08/12 01:33:12;;;;;;;2.97;1.65;;;;;;;20.31;42.53;100019.97;7630089;32;39895;-74
2022/08/12 01:37:30;;;;;;;2.35;1.30;;;;;;;20.49;41.93;100006.87;7616138;32;38722;-74
2022/08/12 01:41:57;;;;;;;2.65;1.30;;;;;;;20.42;41.90;100012.09;7630158;32;36131;-75
2022/08/12 01:46:28;;;;;;;1.30;1.20;;;;;;;20.48;41.87;100002.47;7629328;32;39400;-74
2022/08/12 01:51:02;;;;;;;2.08;1.60;;;;;;;20.26;42.45;100007.16;7629424;32;40854;-74
2022/08/12 01:55:32;;;;;;;3.62;1.40;;;;;;;20.34;42.13;100001.91;7629431;32;37948;-75
2022/08/12 02:00:03;;;;;;;1.62;1.40;;;;;;;20.37;42.01;99995.69;7616113;32;37741;-74
2022/08/12 02:13:44;;;;;;;1.65;1.50;;;;;;;20.17;42.72;100000.81;7596017;32;37984;-75
2022/08/12 02:18:35;;;;;;;2.45;1.48;;;;;;;20.00;43.12;99981.50;7629962;32;38097;-75
2022/08/12 02:22:52;;;;;;;2.03;1.40;;;;;;;20.08;43.01;99988.97;7622031;32;40148;-75
2022/08/12 02:27:11;;;;;;;1.42;1.30;;;;;;;20.10;42.88;99985.87;7632839;32;40770;-74
2022/08/12 02:31:28;;;;;;;1.60;1.50;;;;;;;19.80;43.73;99971.94;7619942;32;38665;-75
2022/08/12 02:35:44;;;;;;;1.85;1.55;;;;;;;19.89;43.26;99968.03;7632549;32;37006;-73
2022/08/12 02:40:02;;;;;;;2.30;1.58;;;;;;;19.94;43.28;99966.22;7633036;32;39467;-75
2022/08/12 02:44:21;;;;;;;2.45;1.50;;;;;;;19.91;43.23;99958.59;7619576;32;40046;-74
2022/08/12 02:49:08;;;;;;;2.65;1.55;;;;;;;19.94;43.13;99966.22;7619190;32;37735;-75
2022/08/12 02:53:29;;;;;;;1.67;1.37;;;;;;;19.78;43.65;99952.94;7632885;32;36913;-75
2022/08/12 02:57:46;;;;;;;2.45;1.80;;;;;;;19.81;43.39;99952.25;7618674;32;39073;-74
2022/08/12 03:02:03;;;;;;;2.53;1.52;;;;;;;19.57;43.85;99952.78;7632500;32;40015;-74
2022/08/12 03:06:26;;;;;;;2.80;1.30;;;;;;;19.73;43.51;99950.31;7632197;32;38453;-73
2022/08/12 03:10:44;;;;;;;2.42;1.30;;;;;;;19.98;44.54;99953.38;7619512;32;37805;-73
2022/08/12 03:15:07;;;;;;;2.65;1.48;;;;;;;19.90;43.40;99960.53;7632358;32;39125;-74
2022/08/12 03:19:24;;;;;;;2.08;1.60;;;;;;;19.88;43.31;99944.25;7631559;32;40777;-74
2022/08/12 03:23:41;;;;;;;1.60;1.40;;;;;;;19.79;43.39;99949.03;7632398;32;37907;-73
2022/08/12 03:27:57;;;;;;;2.20;1.50;;;;;;;19.66;43.65;99953.59;7632113;32;37667;-74
2022/08/12 03:32:14;;;;;;;5.35;1.70;;;;;;;19.61;43.76;99952.94;7632477;32;39688;-74
2022/08/12 03:36:53;;;;;;;2.45;1.62;;;;;;;19.56;44.07;99955.87;7632013;32;40326;-73
2022/08/12 03:41:36;;;;;;;2.78;1.60;;;;;;;19.56;43.99;99958.62;7632371;32;38002;-74
2022/08/12 04:04:15;;;;;;;2.15;1.40;;;;;;;19.31;44.29;99967.44;7632129;32;36750;-73
2022/08/12 04:08:32;;;;;;;3.08;1.77;;;;;;;19.24;44.61;99967.12;7632129;32;39402;-73
2022/08/12 04:13:17;;;;;;;1.65;1.40;;;;;;;19.19;44.71;99969.25;7618637;32;40766;-74
2022/08/12 04:17:33;;;;;;;2.05;1.60;;;;;;;19.49;44.16;99973.78;7630657;32;38514;-74
2022/08/12 04:21:49;;;;;;;2.67;1.50;;;;;;;19.31;44.71;99977.69;7618111;32;36983;-73
2022/08/12 04:26:17;;;;;;;2.05;1.58;;;;;;;19.28;44.78;99978.34;7631520;32;39365;-74
2022/08/12 04:30:35;;;;;;;2.00;1.52;;;;;;;19.23;45.04;99984.03;7631269;32;39910;-73
2022/08/12 04:34:51;;;;;;;1.70;1.58;;;;;;;19.18;45.43;99978.66;7631209;32;39559;-73
2022/08/12 04:39:10;;;;;;;1.90;1.40;;;;;;;19.26;45.05;99969.56;7631595;32;37058;-74
2022/08/12 04:43:28;;;;;;;5.68;1.73;;;;;;;19.35;44.45;99986.16;7631232;32;38382;-73
2022/08/12 04:48:05;;;;;;;1.77;1.45;;;;;;;19.34;44.64;99985.34;7630135;32;41436;-74
2022/08/12 04:52:22;;;;;;;4.03;2.00;;;;;;;19.43;44.25;99975.09;7630837;32;38723;-74
2022/08/12 04:56:39;;;;;;;7.25;1.80;;;;;;;19.36;45.01;99987.78;7630843;32;37811;-73
2022/08/12 05:00:55;;;;;;;5.95;1.60;;;;;;;19.56;44.54;99984.34;7631055;32;39096;-75
2022/08/12 05:05:18;;;;;;;2.33;1.40;;;;;;;19.55;45.27;99988.25;7617257;32;40058;-77
2022/08/12 05:09:34;;;;;;;2.10;1.55;;;;;;;19.82;44.00;99997.34;7616636;32;38587;-77
2022/08/12 05:14:11;;;;;;;2.35;1.50;;;;;;;19.94;43.59;99999.41;7629744;32;37597;-76
2022/08/12 05:18:29;;;;;;;2.00;1.80;;;;;;;20.03;43.13;100003.00;7630233;32;39437;-75
2022/08/12 05:22:45;;;;;;;2.62;1.50;;;;;;;20.18;43.11;99994.16;7630064;32;40101;-76
2022/08/12 05:27:02;;;;;;;2.53;1.50;;;;;;;20.22;42.74;100000.63;7629704;32;37867;-76
2022/08/12 05:31:18;;;;;;;2.85;1.30;;;;;;;20.14;43.04;99992.38;7629769;32;36981;-77
2022/08/12 05:35:55;;;;;;;3.33;1.58;;;;;;;20.41;42.84;100002.19;7628740;32;39789;-77
2022/08/12 05:40:11;;;;;;;1.62;1.52;;;;;;;20.52;42.90;99994.31;7615419;32;40527;-77
2022/08/12 05:44:27;;;;;;;6.12;1.73;;;;;;;20.64;42.89;100002.75;7632777;32;37954;-76
2022/08/12 05:48:43;;;;;;;4.40;1.60;;;;;;;20.89;42.61;100006.53;7633384;32;37938;-77
2022/08/12 05:53:00;;;;;;;2.80;1.62;;;;;;;21.20;42.12;100002.56;7619872;32;40076;-77
2022/08/12 05:57:16;;;;;;;5.35;1.95;;;;;;;21.05;42.28;99994.84;7633095;32;39995;-77
2022/08/12 06:01:34;;;;;;;2.60;1.50;;;;;;;21.20;42.28;99997.00;7633230;32;37872;-77
2022/08/12 06:06:10;;;;;;;4.65;1.90;;;;;;;21.42;41.73;100006.09;7632534;32;37456;-77
2022/08/12 06:10:27;;;;;;;6.37;1.92;;;;;;;21.65;41.32;99995.50;7632869;32;39344;-78
2022/08/12 06:14:48;;;;;;;3.30;1.50;;;;;;;21.88;40.29;99995.91;7631339;32;40030;-78
2022/08/12 06:19:06;;;;;;;2.65;1.60;;;;;;;21.94;40.72;99994.53;7629548;32;37907;-78
2022/08/12 06:23:27;;;;;;;1.80;1.52;;;;;;;22.49;38.59;99982.12;7629829;32;36024;-78
2022/08/12 06:27:47;;;;;;;2.58;1.45;;;;;;;22.49;38.51;99987.69;7629731;32;39588;-78
2022/08/12 06:32:22;;;;;;;2.53;1.60;;;;;;;22.93;37.93;99994.59;7632287;32;39513;-78
2022/08/12 06:36:44;;;;;;;3.87;1.80;;;;;;;23.20;37.10;99988.31;7632762;32;38705;-78
2022/08/12 06:45:43;;;;;;;3.67;1.40;;;;;;;23.35;36.82;99994.25;7632740;32;39376;-78
2022/08/12 06:50:02;;;;;;;2.65;1.70;;;;;;;23.37;36.85;99997.50;7632752;32;39611;-78
2022/08/12 06:54:18;;;;;;;4.55;1.50;;;;;;;23.31;36.60;99998.94;7632467;32;38020;-78
2022/08/12 06:58:46;;;;;;;2.35;1.73;;;;;;;23.35;36.80;99995.09;7632635;32;37122;-78
2022/08/12 07:03:04;;;;;;;2.40;1.85;;;;;;;23.62;35.29;100001.00;7631911;32;40095;-78
2022/08/12 07:07:40;;;;;;;1.87;1.58;;;;;;;23.65;35.83;100003.09;7632521;32;39951;-80
2022/08/12 07:11:56;;;;;;;1.52;1.42;;;;;;;24.04;35.04;100002.53;7632011;32;38241;-77
2022/08/12 07:16:16;;;;;;;4.03;1.42;;;;;;;24.31;34.96;99996.09;7632378;32;36748;-78
2022/08/12 07:20:34;;;;;;;1.52;1.35;;;;;;;24.66;34.11;99986.19;7632308;32;39464;-77
2022/08/12 07:29:42;;;;;;;2.87;1.70;;;;;;;24.91;33.44;99986.78;7632115;32;38003;-79
2022/08/12 07:34:18;;;;;;;4.93;1.65;;;;;;;25.18;32.88;99992.53;7631607;32;37447;-79
2022/08/12 07:38:37;;;;;;;2.08;1.50;;;;;;;25.28;32.49;99994.75;7632966;32;39440;-75
2022/08/12 07:42:53;;;;;;;3.53;1.58;;;;;;;25.55;32.04;99989.34;7632164;32;40123;-74
2022/08/12 07:47:09;;;;;;;1.58;1.48;;;;;;;25.65;32.17;99977.56;7631089;32;38838;-77
2022/08/12 07:51:28;;;;;;;1.50;1.40;;;;;;;26.00;31.69;99979.44;7631940;32;37838;-79
2022/08/12 07:55:44;;;;;;;2.92;1.35;;;;;;;25.94;31.51;99984.53;7631935;32;40188;-78
2022/08/12 08:00:04;;;;;;;2.53;1.60;;;;;;;26.02;31.24;99982.66;7631730;32;40767;-80
2022/08/12 08:08:56;;;;;;;13.40;2.17;;;;;;;26.37;31.03;99976.06;7631374;32;37225;-78
2022/08/12 08:13:12;;;;;;;2.87;1.60;;;;;;;26.51;30.14;99979.09;7631621;32;40148;-76
2022/08/12 08:17:28;;;;;;;6.37;1.90;;;;;;;26.81;30.21;99981.16;7631696;32;39881;-79
2022/08/12 08:21:45;;;;;;;2.35;1.58;;;;;;;26.44;30.16;99981.78;7631695;32;38741;-79
2022/08/12 08:26:01;;;;;;;2.95;1.58;;;;;;;27.24;29.31;99973.34;7631488;32;36713;-79
2022/08/12 08:30:17;;;;;;;2.03;1.80;;;;;;;27.38;29.22;99963.53;7631240;32;39829;-81
2022/08/12 08:34:34;;;;;;;2.53;1.60;;;;;;;27.84;29.13;99968.84;7630777;32;39621;-79
2022/08/12 08:39:11;;;;;;;24.25;3.20;;;;;;;28.15;28.91;99966.72;7630962;32;37694;-80
2022/08/12 08:43:28;;;;;;;2.90;1.83;;;;;;;27.95;28.50;99952.97;7608669;32;36150;-80
2022/08/12 08:47:59;;;;;;;5.60;1.80;;;;;;;27.86;28.29;99958.06;7630757;32;40475;-79
2022/08/12 08:52:17;;;;;;;2.72;1.70;;;;;;;28.43;28.06;99940.94;7631007;32;40121;-79
2022/08/12 08:56:53;;;;;;;4.60;1.95;;;;;;;28.73;27.47;99946.34;7630497;32;38163;-79
2022/08/12 09:01:10;;;;;;;1.90;1.52;;;;;;;29.02;25.76;99947.31;7630763;32;37749;-78
2022/08/12 09:05:34;;;;;;;10.77;1.80;;;;;;;28.89;26.59;99948.88;7630853;32;39096;-80
2022/08/12 09:10:12;;;;;;;3.37;1.60;;;;;;;29.26;26.49;99944.25;7630062;32;41427;-80
2022/08/12 09:14:47;;;;;;;2.08;1.70;;;;;;;29.64;26.40;99939.13;7630572;32;38647;-79
2022/08/12 09:19:12;;;;;;;3.22;2.03;;;;;;;29.72;24.87;99935.94;7632322;32;37899;-80
2022/08/12 09:23:42;;;;;;;6.80;1.83;;;;;;;29.86;25.41;99937.19;7627042;32;39548;-80
2022/08/12 09:28:23;;;;;;;5.72;1.70;;;;;;;30.09;24.61;99923.53;7633583;32;40094;-81
2022/08/12 09:32:50;;;;;;;2.22;1.90;;;;;;;30.40;24.29;99925.97;7633466;32;38798;-77
2022/08/12 09:37:27;;;;;;;2.50;2.12;;;;;;;30.40;24.07;99925.97;7606974;32;37570;-77
2022/08/12 09:46:58;;;;;;;2.75;2.00;;;;;;;30.90;23.81;99911.75;7607113;32;39947;-79
2022/08/12 09:51:15;;;;;;;4.15;2.67;;;;;;;30.78;22.67;99907.38;7630368;32;37595;-76
2022/08/12 09:55:40;;;;;;;;;;;;;;;31.32;22.81;99906.38;7630441;32;37231;-79
2022/08/12 10:00:26;;;;;;;4.30;2.08;;;;;;;31.49;21.65;99896.22;7617365;32;40098;-77
2022/08/12 10:04:47;;;;;;;2.62;2.00;;;;;;;31.74;22.31;99891.25;7630714;32;40845;-75
2022/08/12 10:09:08;;;;;;;5.75;2.58;;;;;;;31.67;21.73;99888.47;7633359;32;37949;-77
2022/08/12 10:13:42;;;;;;;3.47;2.20;;;;;;;31.75;20.81;99884.41;7630951;32;37063;-78
2022/08/12 10:17:58;;;;;;;3.00;2.33;;;;;;;31.79;20.80;99879.53;7630091;32;40325;-77
2022/08/12 10:22:22;;;;;;;2.58;2.12;;;;;;;31.42;21.52;99877.34;7630115;32;40149;-78
2022/08/12 10:31:38;;;;;;;6.05;2.17;;;;;;;31.95;22.30;99889.47;7633087;32;37069;-76
2022/08/12 10:36:14;;;;;;;2.90;1.95;;;;;;;32.37;21.42;99881.84;7632480;32;39647;-77
2022/08/12 10:40:31;;;;;;;2.65;1.98;;;;;;;32.59;20.75;99871.13;7633000;32;40899;-78
2022/08/12 10:44:54;;;;;;;3.00;1.90;;;;;;;32.78;20.36;99875.38;7632684;32;38791;-78
2022/08/12 10:49:11;;;;;;;2.40;1.92;;;;;;;32.82;20.71;99869.66;7631186;32;36941;-77
2022/08/12 10:53:47;;;;;;;3.22;1.92;;;;;;;32.01;21.67;99870.87;7630717;32;40320;-78
2022/08/12 10:58:07;;;;;;;4.32;2.03;;;;;;;32.11;21.32;99857.94;7630989;32;40977;-77
2022/08/12 11:02:53;;;;;;;5.00;1.95;;;;;;;31.91;22.52;99863.31;7630291;32;39240;-78
2022/08/12 11:07:34;;;;;;;2.35;1.92;;;;;;;32.05;21.65;99865.19;7630381;32;37396;-78
2022/08/12 11:12:10;;;;;;;3.17;1.80;;;;;;;31.87;21.90;99862.56;7630521;32;40602;-76
2022/08/12 11:16:47;;;;;;;2.83;1.70;;;;;;;32.12;21.04;99877.25;7630206;32;41135;-78
2022/08/12 11:21:23;;;;;;;3.90;1.85;;;;;;;32.26;21.50;99859.38;7630164;32;38144;-76
2022/08/12 11:25:59;;;;;;;2.40;1.52;;;;;;;32.14;20.95;99859.91;7628388;32;38124;-78
2022/08/12 11:30:21;;;;;;;3.78;1.62;;;;;;;31.90;21.43;99862.50;7630336;32;39083;-78
2022/08/12 11:34:46;;;;;;;3.15;1.77;;;;;;;32.28;21.86;99858.97;7629706;32;40093;-77
2022/08/12 11:39:09;;;;;;;3.17;1.85;;;;;;;32.85;19.95;99857.53;7629339;32;38023;-77
2022/08/12 11:43:27;;;;;;;2.87;1.73;;;;;;;32.78;19.66;99855.59;7630276;32;36844;-76
2022/08/12 11:47:45;;;;;;;4.65;1.65;;;;;;;32.56;19.53;99861.50;7626452;32;142077;-78
2022/08/12 11:52:04;;;;;;;6.72;1.85;;;;;;;32.34;19.87;99851.63;7631887;32;39227;-77
2022/08/12 11:56:40;;;;;;;2.80;1.60;;;;;;;31.76;20.77;99854.19;7630995;32;38532;-77
2022/08/12 12:01:07;;;;;;;4.80;1.70;;;;;;;31.35;22.26;99854.88;7631244;32;36836;-78
2022/08/12 12:05:43;;;;;;;3.75;1.45;;;;;;;31.53;21.99;99860.38;7631462;32;39786;-78
2022/08/12 12:10:00;;;;;;;4.18;1.50;;;;;;;31.15;22.80;99863.00;7631965;32;40490;-74
2022/08/12 12:14:16;;;;;;;2.97;1.67;;;;;;;32.10;21.93;99854.31;7631376;32;37859;-78
2022/08/12 12:18:34;;;;;;;2.92;1.70;;;;;;;32.13;22.05;99853.50;7627048;32;38176;-78
2022/08/12 12:22:51;;;;;;;2.67;1.58;;;;;;;32.22;21.25;99846.53;7605376;32;39972;-79
2022/08/12 12:27:09;;;;;;;5.35;2.00;;;;;;;31.91;22.59;99847.22;7605246;32;39729;-79
2022/08/12 12:31:25;;;;;;;3.65;1.65;;;;;;;31.93;21.78;99839.13;7613241;32;38447;-79
2022/08/12 12:36:01;;;;;;;1.80;1.40;;;;;;;32.01;22.25;99837.88;7630538;32;37861;-79
2022/08/12 12:40:40;;;;;;;2.83;1.30;;;;;;;31.98;22.13;99821.78;7631020;32;40079;-79
2022/08/12 12:44:58;;;;;;;3.92;1.80;;;;;;;32.62;20.66;99819.53;7630637;32;39985;-78
2022/08/12 12:49:15;;;;;;;7.40;1.60;;;;;;;32.65;20.41;99821.50;7630647;32;38658;-80
2022/08/12 12:53:31;;;;;;;3.08;1.37;;;;;;;32.47;21.36;99812.44;7630869;32;37036;-79
2022/08/12 12:58:15;;;;;;;3.40;1.50;;;;;;;33.05;21.19;99807.66;7630045;32;39736;-79
2022/08/12 13:02:31;;;;;;;6.22;1.75;;;;;;;33.79;19.56;99806.12;7630689;32;41130;-80
2022/08/12 13:06:50;;;;;;;2.10;1.58;;;;;;;33.83;19.62;99790.72;7630453;32;38844;-78
2022/08/12 13:11:07;;;;;;;1.75;1.40;;;;;;;34.04;19.68;99788.72;7630594;32;36748;-81
2022/08/12 13:15:24;;;;;;;2.75;1.30;;;;;;;34.70;18.49;99783.38;7629554;32;39336;-79
2022/08/12 13:20:04;;;;;;;4.28;1.48;;;;;;;34.78;17.74;99768.66;7630078;32;38803;-78
2022/08/12 13:24:20;;;;;;;2.92;1.40;;;;;;;34.32;18.16;99766.78;7630055;32;37882;-79
2022/08/12 13:28:36;;;;;;;1.75;1.45;;;;;;;34.26;18.84;99777.81;7630737;32;37783;-78
2022/08/12 13:32:57;;;;;;;2.15;1.30;;;;;;;34.28;19.09;99769.69;7630146;32;39373;-80
2022/08/12 13:37:14;;;;;;;2.97;1.48;;;;;;;34.54;18.74;99769.97;7629460;32;40061;-81
2022/08/12 13:41:34;;;;;;;3.58;1.45;;;;;;;34.62;18.80;99760.09;7616750;32;37911;-81
2022/08/12 13:45:50;;;;;;;2.55;1.67;;;;;;;34.73;18.69;99760.69;7630078;32;37095;-82
2022/08/12 13:50:06;;;;;;;3.20;1.80;;;;;;;34.94;18.37;99747.28;7629344;32;41553;-79
2022/08/12 13:54:24;;;;;;;5.80;1.50;;;;;;;34.43;19.07;99754.03;7629039;32;40821;-77
2022/08/12 13:58:47;;;;;;;3.25;1.40;;;;;;;34.51;18.09;99751.03;7628999;32;37961;-79
2022/08/12 14:03:07;;;;;;;3.37;1.58;;;;;;;34.96;18.12;99744.78;7630558;32;37877;-83
2022/08/12 14:07:25;;;;;;;1.67;1.25;;;;;;;35.23;17.58;99736.09;7631853;32;39911;-80
2022/08/12 14:11:44;;;;;;;3.00;1.40;;;;;;;34.97;18.74;99740.72;7632932;32;40015;-80
2022/08/12 14:16:17;;;;;;;;;;;;;;;35.55;17.96;99743.00;7632754;32;38058;-79
2022/08/12 14:20:57;;;;;;;1.33;1.23;;;;;;;36.19;17.31;99734.78;7632323;32;38415;-81
2022/08/12 14:25:15;;;;;;;6.35;1.75;;;;;;;36.70;16.33;99731.28;7632707;32;40182;-78
2022/08/12 14:29:32;;;;;;;1.60;1.12;;;;;;;36.48;17.22;99728.28;7632519;32;40867;-80
2022/08/12 14:34:09;;;;;;;2.35;1.40;;;;;;;36.91;16.94;99724.16;7632069;32;39266;-78
2022/08/12 14:38:30;;;;;;;3.85;1.33;;;;;;;37.35;17.01;99735.69;7631521;32;37517;-77
2022/08/12 14:42:46;;;;;;;1.63;1.30;;;;;;;36.96;16.36;99722.75;7629728;32;40028;-77
2022/08/12 14:47:02;;;;;;;3.12;1.48;;;;;;;36.84;16.45;99715.84;7631551;32;39909;-80
2022/08/12 14:51:25;;;;;;;3.03;1.45;;;;;;;37.32;17.04;99722.41;7606297;32;37845;-79
2022/08/12 14:56:02;;;;;;;3.75;1.30;;;;;;;36.90;17.05;99710.41;7628944;32;38380;-79
2022/08/12 15:05:15;;;;;;;2.60;1.30;;;;;;;37.19;16.22;99710.28;7619998;32;39731;-76
2022/08/12 15:09:51;;;;;;;2.35;1.50;;;;;;;37.08;16.47;99702.06;7621918;32;38893;-80
2022/08/12 15:14:10;;;;;;;1.98;1.30;;;;;;;36.87;16.49;99694.25;7627899;32;37285;-78
2022/08/12 15:18:29;;;;;;;1.50;1.40;;;;;;;36.27;17.46;99699.31;7629547;32;39180;-79
2022/08/12 15:22:45;;;;;;;3.15;1.50;;;;;;;36.30;17.06;99688.28;7617957;32;40010;-79
2022/08/12 15:27:09;;;;;;;6.93;1.27;;;;;;;36.49;17.20;99680.81;7632201;32;37821;-80
2022/08/12 15:31:25;;;;;;;3.15;1.60;;;;;;;36.38;17.30;99675.50;7632098;32;37986;-80
2022/08/12 15:36:01;;;;;;;4.57;1.40;;;;;;;36.12;17.96;99675.41;7631606;32;40572;-80
2022/08/12 15:40:18;;;;;;;1.55;1.20;;;;;;;36.41;18.14;99680.25;7631868;32;39973;-80
2022/08/12 15:44:45;;;;;;;7.37;1.87;;;;;;;36.39;18.15;99675.00;7631855;32;37717;-79
2022/08/12 15:49:02;;;;;;;3.40;1.35;;;;;;;36.31;17.28;99665.16;7624145;32;37892;-79
2022/08/12 15:58:11;;;;;;;2.95;1.67;;;;;;;36.31;16.90;99656.63;7630734;32;40029;-81
2022/08/12 16:02:27;;;;;;;2.00;1.37;;;;;;;36.29;17.56;99650.63;7630465;32;37833;-81
2022/08/12 16:06:44;;;;;;;3.35;1.33;;;;;;;36.47;16.60;99655.72;7630974;32;37985;-81
2022/08/12 16:11:21;;;;;;;11.15;3.83;;;;;;;36.35;17.21;99648.78;7629672;32;39738;-80
2022/08/12 16:15:40;;;;;;;4.35;1.65;;;;;;;35.96;16.98;99655.63;7630896;32;39667;-79
2022/08/12 16:19:58;;;;;;;3.22;2.00;;;;;;;35.14;17.35;99648.84;7630009;32;36895;-80
2022/08/12 16:24:20;;;;;;;5.47;1.65;;;;;;;34.89;17.78;99649.50;7631107;32;37037;-78
2022/08/12 16:28:37;;;;;;;2.42;1.70;;;;;;;34.37;18.52;99648.25;7616917;32;39394;-75
2022/08/12 16:32:53;;;;;;;3.53;1.42;;;;;;;33.98;19.04;99658.34;7629808;32;39648;-80
2022/08/12 16:37:12;;;;;;;2.17;1.27;;;;;;;33.80;18.84;99649.44;7630685;32;37572;-79
2022/08/12 16:41:30;;;;;;;1.60;1.20;;;;;;;33.29;20.03;99650.37;7629190;32;37584;-80
2022/08/12 16:46:10;;;;;;;2.67;1.40;;;;;;;33.19;19.81;99651.34;7610552;32;40077;-79
2022/08/12 16:50:48;;;;;;;2.65;1.48;;;;;;;32.62;20.58;99646.62;7629106;32;40167;-79
2022/08/12 16:55:08;;;;;;;2.25;1.50;;;;;;;32.50;20.49;99643.09;7629118;32;36888;-80
2022/08/12 16:59:29;;;;;;;2.75;1.33;;;;;;;32.49;20.86;99635.84;7630758;32;37934;-79
2022/08/12 17:04:08;;;;;;;2.90;1.60;;;;;;;32.10;21.57;99631.59;7629223;32;39376;-80
2022/08/12 17:08:25;;;;;;;2.00;1.37;;;;;;;31.85;22.09;99622.59;7630534;32;40776;-80
2022/08/12 17:12:44;;;;;;;2.85;1.50;;;;;;;31.69;22.24;99621.19;7629346;32;37185;-79
2022/08/12 17:17:00;;;;;;;5.15;1.35;;;;;;;31.89;22.23;99629.00;7629584;32;37072;-76
2022/08/12 17:21:27;;;;;;;2.17;1.40;;;;;;;31.69;22.30;99632.44;7629720;32;39420;-79
2022/08/12 17:26:04;;;;;;;2.45;1.50;;;;;;;31.41;22.76;99623.06;7618589;32;40145;-79
2022/08/12 17:30:20;;;;;;;2.03;1.30;;;;;;;30.97;23.76;99624.69;7618260;32;37911;-79
2022/08/12 17:39:11;;;;;;;2.20;1.58;;;;;;;30.47;25.50;99627.84;7620130;32;39292;-78
2022/08/12 17:43:28;;;;;;;2.97;1.67;;;;;;;30.25;25.68;99615.88;7619545;32;40988;-77
2022/08/12 17:48:10;;;;;;;6.00;1.50;;;;;;;30.07;25.79;99627.22;7606159;32;38310;-79
2022/08/12 17:52:34;;;;;;;4.72;1.60;;;;;;;29.82;25.77;99628.16;7606512;32;37035;-79
2022/08/12 17:56:50;;;;;;;2.17;1.58;;;;;;;29.64;25.78;99625.34;7606818;32;39372;-76
2022/08/12 18:01:07;;;;;;;6.05;1.33;;;;;;;29.50;25.67;99617.75;7606807;32;39607;-76
2022/08/12 18:05:27;;;;;;;2.53;1.52;;;;;;;29.12;26.48;99634.25;7606631;32;36006;-76
2022/08/12 18:10:04;;;;;;;5.78;1.90;;;;;;;29.15;26.26;99635.44;7623689;32;37148;-78
2022/08/12 18:14:21;;;;;;;7.65;3.30;;;;;;;28.74;27.50;99639.44;7604879;32;38012;-79
2022/08/12 18:18:43;;;;;;;36.05;19.95;;;;;;;28.63;26.68;99645.03;7629305;32;40837;-78
2022/08/12 18:23:05;;;;;;;6.28;2.45;;;;;;;28.21;27.65;99651.31;7631640;32;38021;-79
2022/08/12 18:27:22;;;;;;;7.65;2.03;;;;;;;28.20;27.71;99641.28;7630943;32;38086;-78
2022/08/12 18:31:50;;;;;;;3.55;1.50;;;;;;;28.02;27.88;99650.44;7619857;32;39970;-79
2022/08/12 18:36:26;;;;;;;2.92;1.70;;;;;;;27.96;28.32;99652.03;7619893;32;40077;-79
2022/08/12 18:45:21;;;;;;;3.20;1.35;;;;;;;27.66;28.76;99666.22;7631281;32;37649;-78
2022/08/12 18:49:47;;;;;;;2.28;1.70;;;;;;;27.54;29.15;99662.56;7617942;32;38932;-79
2022/08/12 18:54:07;;;;;;;6.82;1.95;;;;;;;27.54;29.31;99661.75;7631422;32;39987;-78
2022/08/12 18:58:28;;;;;;;4.65;2.42;;;;;;;27.31;29.84;99665.59;7617487;32;38601;-77
2022/08/12 19:02:54;;;;;;;9.80;2.35;;;;;;;27.01;30.24;99659.31;7631929;32;37154;-78
2022/08/12 19:07:22;;;;;;;3.87;2.28;;;;;;;27.06;30.17;99661.75;7630595;32;38837;-78
2022/08/12 19:16:22;;;;;;;7.45;2.53;;;;;;;26.68;30.99;99667.44;7616439;32;37768;-78
2022/08/12 19:20:38;;;;;;;6.45;2.60;;;;;;;26.44;31.83;99671.53;7630622;32;37151;-78
2022/08/12 19:29:40;;;;;;;3.53;1.80;;;;;;;26.14;32.61;99677.97;7629618;32;40873;-77
2022/08/12 19:34:22;;;;;;;3.00;1.75;;;;;;;26.01;32.56;99671.03;7629967;32;39145;-77
2022/08/12 19:39:04;;;;;;;4.87;1.83;;;;;;;25.90;33.09;99675.63;7630713;32;38533;-79
2022/08/12 19:43:38;;;;;;;2.90;1.60;;;;;;;25.99;32.71;99676.16;7622477;32;39313;-77
2022/08/12 19:48:17;;;;;;;2.67;1.62;;;;;;;25.89;32.89;99679.59;7631176;32;37855;-77
2022/08/12 19:52:33;;;;;;;2.25;1.75;;;;;;;25.74;33.34;99673.03;7618149;32;37599;-78
2022/08/12 19:56:52;;;;;;;4.78;1.77;;;;;;;25.66;33.52;99680.47;7631268;32;38101;-77
2022/08/12 20:01:10;;;;;;;3.60;2.20;;;;;;;25.49;33.70;99682.66;7630314;32;39439;-77
2022/08/12 20:05:28;;;;;;;7.90;2.72;;;;;;;25.22;34.61;99681.78;7631379;32;40818;-77
2022/08/12 20:10:10;;;;;;;5.68;2.35;;;;;;;25.16;34.59;99680.47;7629630;32;38462;-76
2022/08/12 20:14:33;;;;;;;9.43;5.03;;;;;;;25.03;34.83;99682.66;7630958;32;37626;-77
2022/08/12 20:18:50;;;;;;;9.57;4.53;;;;;;;25.06;34.78;99676.34;7628745;32;38261;-77
2022/08/12 20:23:21;;;;;;;4.70;2.25;;;;;;;24.89;34.87;99676.84;7626880;32;40943;-76
2022/08/12 20:27:40;;;;;;;3.95;1.65;;;;;;;24.79;35.04;99683.03;7629909;32;38293;-76
2022/08/12 20:32:16;;;;;;;2.20;1.77;;;;;;;24.78;34.95;99665.50;7630938;32;37333;-77
2022/08/12 20:36:44;;;;;;;5.32;1.70;;;;;;;24.65;34.95;99672.44;7630419;32;39423;-76
2022/08/12 20:41:11;;;;;;;7.03;2.72;;;;;;;24.68;34.73;99671.69;7630497;32;39647;-77
2022/08/12 20:45:34;;;;;;;4.40;2.47;;;;;;;24.31;35.61;99667.38;7630242;32;38796;-76
2022/08/12 20:50:07;;;;;;;3.50;2.30;;;;;;;24.13;35.99;99671.81;7628445;32;37865;-76
2022/08/12 20:54:23;;;;;;;7.05;2.53;;;;;;;24.06;36.34;99680.00;7630181;32;39146;-76
2022/08/12 20:58:53;;;;;;;8.50;3.53;;;;;;;23.91;36.96;99676.09;7630580;32;40300;-75
2022/08/12 21:07:48;;;;;;;2.10;1.58;;;;;;;23.97;36.58;99697.72;7628998;32;38484;-74
2022/08/12 21:12:08;;;;;;;2.53;1.48;;;;;;;23.67;36.90;99688.28;7629593;32;40053;-75
2022/08/12 21:16:46;;;;;;;2.45;1.83;;;;;;;23.61;36.62;99679.38;7630254;32;39824;-76
2022/08/12 21:21:07;;;;;;;3.00;2.20;;;;;;;23.39;36.78;99683.66;7629219;32;37568;-75
2022/08/12 21:25:39;;;;;;;2.53;1.75;;;;;;;23.18;36.87;99684.75;7630238;32;37176;-75
2022/08/12 21:30:03;;;;;;;3.55;1.92;;;;;;;23.35;36.24;99682.75;7633350;32;40168;-74
2022/08/12 21:34:20;;;;;;;7.10;2.47;;;;;;;23.20;37.53;99681.59;7633539;32;40819;-76
2022/08/12 21:38:41;;;;;;;7.50;2.37;;;;;;;22.90;42.48;99695.09;7632929;32;38004;-75
2022/08/12 21:42:59;;;;;;;3.72;2.37;;;;;;;22.94;41.83;99690.44;7633327;32;35930;-76
2022/08/12 21:47:16;;;;;;;3.12;1.90;;;;;;;22.90;42.07;99697.88;7633003;32;39310;-75
2022/08/12 21:51:37;;;;;;;3.72;2.10;;;;;;;22.75;41.80;99705.84;7633074;32;39993;-76
2022/08/12 21:56:07;;;;;;;2.30;1.80;;;;;;;23.05;40.30;99697.09;7633127;32;37547;-76
2022/08/12 22:00:27;;;;;;;2.28;1.70;;;;;;;22.56;40.95;99709.31;7632715;32;37115;-75
2022/08/12 22:09:25;;;;;;;5.12;2.00;;;;;;;22.71;40.04;99707.72;7632762;32;39950;-74
2022/08/12 22:13:44;;;;;;;4.37;2.22;;;;;;;22.65;40.11;99704.37;7632936;32;37571;-76
2022/08/12 22:18:25;;;;;;;3.40;1.87;;;;;;;22.38;40.79;99711.56;7631939;32;38505;-74
2022/08/12 22:22:41;;;;;;;2.45;1.77;;;;;;;22.39;40.64;99717.97;7632508;32;39462;-75
2022/08/12 22:27:11;;;;;;;3.10;2.20;;;;;;;22.57;40.49;99726.78;7632811;32;40640;-75
2022/08/12 22:31:47;;;;;;;2.25;1.77;;;;;;;22.44;41.34;99724.06;7631535;32;41197;-75
2022/08/12 22:36:04;;;;;;;4.18;2.00;;;;;;;22.34;42.11;99713.44;7632698;32;36714;-76
2022/08/12 22:40:20;;;;;;;4.57;1.92;;;;;;;22.34;42.15;99719.00;7632440;32;39356;-75
2022/08/12 22:49:38;;;;;;;4.20;2.10;;;;;;;22.19;42.72;99708.59;7550252;33;37767;-75
2022/08/12 22:54:14;;;;;;;2.45;1.80;;;;;;;22.40;40.60;99705.66;7593608;32;35168;-75
2022/08/12 22:58:55;;;;;;;5.05;1.92;;;;;;;22.30;41.43;99701.41;7631523;32;40465;-74
2022/08/12 23:03:12;;;;;;;4.53;2.17;;;;;;;22.35;41.74;99701.16;7632398;32;39980;-75
2022/08/12 23:07:48;;;;;;;3.25;1.90;;;;;;;22.53;40.88;99687.00;7631447;32;38295;-74